N737GG KHVN-KTUS
Flight info
| Callsign | N737GG |
|---|---|
| Flight time | N/A |
| Altitude | 30000 |
| Route | BEADS T320 SARDI RBV Q430 SAAME J6 HVQ Q68 RAMRD MEM J66 BYP MQP ABI J66 EWM ZONNA2 |
| Aircraft | B738/M-SDE2E3FGHIRWXY/LB1 |
Departure
| Time | 2026-04-30 19:18 |
|---|---|
| Airport | Tweed New Haven Airport (KHVN) |
Arrival
| Time | N/A |
|---|---|
| Airport | Tucson International Airport (KTUS) |
| Time | Latitude | Longitude | Altitude | Speed | Heading |
|---|---|---|---|---|---|
| 2026-04-30 18:58 | 41.26938 | -72.88966 | 16 ft | 0 kts | 271° |
| 2026-04-30 19:11 | 41.26937 | -72.88941 | 16 ft | 4 kts | 288° |
| 2026-04-30 19:12 | 41.26924 | -72.88914 | 16 ft | 4 kts | 336° |
| 2026-04-30 19:12 | 41.26906 | -72.88909 | 16 ft | 0 kts | 3° |
| 2026-04-30 19:13 | 41.26905 | -72.88909 | 16 ft | 0 kts | 3° |
| 2026-04-30 19:15 | 41.26906 | -72.88909 | 16 ft | 0 kts | 3° |
| 2026-04-30 19:15 | 41.26975 | -72.88899 | 16 ft | 18 kts | 8° |
| 2026-04-30 19:16 | 41.27048 | -72.88854 | 16 ft | 18 kts | 37° |
| 2026-04-30 19:16 | 41.27103 | -72.88765 | 16 ft | 12 kts | 91° |
| 2026-04-30 19:16 | 41.27060 | -72.88728 | 16 ft | 0 kts | 182° |
| 2026-04-30 19:17 | 41.26188 | -72.88788 | 19 ft | 141 kts | 183° |
| 2026-04-30 19:17 | 41.25102 | -72.88878 | 548 ft | 164 kts | 186° |
| 2026-04-30 19:18 | 41.23233 | -72.89080 | 2060 ft | 177 kts | 186° |
| 2026-04-30 19:18 | 41.21386 | -72.89270 | 2462 ft | 218 kts | 186° |
| 2026-04-30 19:18 | 41.19808 | -72.89415 | 2816 ft | 233 kts | 184° |
| 2026-04-30 19:19 | 41.18208 | -72.88982 | 3333 ft | 242 kts | 153° |
| 2026-04-30 19:19 | 41.16755 | -72.87804 | 3916 ft | 251 kts | 149° |
| 2026-04-30 19:19 | 41.13630 | -72.85249 | 5135 ft | 270 kts | 151° |
| 2026-04-30 19:20 | 41.12025 | -72.83963 | 6025 ft | 271 kts | 152° |
| 2026-04-30 19:20 | 41.10393 | -72.82673 | 6844 ft | 274 kts | 153° |
| 2026-04-30 19:20 | 41.07069 | -72.80072 | 8493 ft | 280 kts | 153° |
| 2026-04-30 19:21 | 41.05380 | -72.78760 | 9278 ft | 284 kts | 154° |
| 2026-04-30 19:21 | 41.01945 | -72.76106 | 10397 ft | 294 kts | 155° |
| 2026-04-30 19:22 | 40.98113 | -72.73171 | 10781 ft | 341 kts | 154° |
| 2026-04-30 19:22 | 40.91432 | -72.68037 | 11527 ft | 392 kts | 154° |
| 2026-04-30 19:23 | 40.84291 | -72.62546 | 13384 ft | 401 kts | 154° |
| 2026-04-30 19:24 | 40.79412 | -72.58819 | 14485 ft | 409 kts | 155° |
| 2026-04-30 19:24 | 40.76830 | -72.57313 | 14992 ft | 404 kts | 171° |
| 2026-04-30 19:24 | 40.71413 | -72.57883 | 16135 ft | 391 kts | 204° |
| 2026-04-30 19:25 | 40.65071 | -72.64401 | 17698 ft | 390 kts | 226° |
| 2026-04-30 19:26 | 40.61291 | -72.69099 | 18639 ft | 395 kts | 225° |
| 2026-04-30 19:26 | 40.57231 | -72.74030 | 19588 ft | 399 kts | 225° |
| 2026-04-30 19:26 | 40.55237 | -72.76515 | 20020 ft | 401 kts | 229° |
| 2026-04-30 19:27 | 40.52276 | -72.82395 | 20827 ft | 404 kts | 244° |
| 2026-04-30 19:27 | 40.50561 | -72.89473 | 21579 ft | 410 kts | 255° |
| 2026-04-30 19:28 | 40.49911 | -72.93127 | 21940 ft | 413 kts | 255° |
| 2026-04-30 19:28 | 40.48600 | -73.00516 | 22625 ft | 417 kts | 255° |
| 2026-04-30 19:29 | 40.47247 | -73.07976 | 23234 ft | 422 kts | 255° |
| 2026-04-30 19:29 | 40.46558 | -73.11731 | 23572 ft | 424 kts | 255° |
| 2026-04-30 19:30 | 40.44455 | -73.23099 | 24430 ft | 430 kts | 255° |
| 2026-04-30 19:30 | 40.43025 | -73.30784 | 25080 ft | 431 kts | 255° |
| 2026-04-30 19:31 | 40.41599 | -73.38414 | 25733 ft | 431 kts | 255° |
| 2026-04-30 19:31 | 40.40883 | -73.42228 | 25975 ft | 431 kts | 254° |
| 2026-04-30 19:31 | 40.39454 | -73.49831 | 26617 ft | 427 kts | 255° |
| 2026-04-30 19:32 | 40.38742 | -73.53605 | 27002 ft | 423 kts | 254° |
| 2026-04-30 19:32 | 40.38040 | -73.57329 | 27419 ft | 419 kts | 254° |
| 2026-04-30 19:32 | 40.37339 | -73.61035 | 27808 ft | 417 kts | 254° |
| 2026-04-30 19:32 | 40.36648 | -73.64680 | 28209 ft | 413 kts | 254° |
| 2026-04-30 19:33 | 40.35953 | -73.68344 | 28586 ft | 410 kts | 254° |
| 2026-04-30 19:33 | 40.35265 | -73.71949 | 28973 ft | 406 kts | 254° |
| 2026-04-30 19:33 | 40.34564 | -73.75623 | 29427 ft | 402 kts | 254° |
| 2026-04-30 19:33 | 40.33997 | -73.78587 | 29742 ft | 399 kts | 254° |
| 2026-04-30 19:34 | 40.33325 | -73.82104 | 30112 ft | 396 kts | 254° |
| 2026-04-30 19:34 | 40.32655 | -73.85589 | 30456 ft | 393 kts | 253° |
| 2026-04-30 19:34 | 40.31319 | -73.92538 | 30979 ft | 392 kts | 253° |
| 2026-04-30 19:35 | 40.30694 | -73.95787 | 31223 ft | 391 kts | 253° |
| 2026-04-30 19:35 | 40.30198 | -73.98362 | 31385 ft | 391 kts | 253° |
| 2026-04-30 19:35 | 40.29501 | -74.01967 | 31601 ft | 391 kts | 253° |
| 2026-04-30 19:35 | 40.28831 | -74.05425 | 31814 ft | 390 kts | 253° |
| 2026-04-30 19:36 | 40.28163 | -74.08870 | 32036 ft | 390 kts | 253° |
| 2026-04-30 19:36 | 40.27497 | -74.12301 | 32300 ft | 389 kts | 253° |
| 2026-04-30 19:36 | 40.26161 | -74.19160 | 32723 ft | 388 kts | 253° |
| 2026-04-30 19:37 | 40.25496 | -74.22567 | 32980 ft | 386 kts | 253° |
| 2026-04-30 19:37 | 40.24821 | -74.26023 | 33166 ft | 387 kts | 253° |
| 2026-04-30 19:37 | 40.24152 | -74.29435 | 33296 ft | 388 kts | 253° |
| 2026-04-30 19:37 | 40.23507 | -74.32724 | 33487 ft | 387 kts | 253° |
| 2026-04-30 19:38 | 40.22839 | -74.36123 | 33718 ft | 386 kts | 253° |
| 2026-04-30 19:38 | 40.22169 | -74.39528 | 33919 ft | 386 kts | 253° |
| 2026-04-30 19:38 | 40.21504 | -74.42903 | 34089 ft | 386 kts | 253° |
| 2026-04-30 19:38 | 40.20845 | -74.46235 | 34230 ft | 387 kts | 253° |
| 2026-04-30 19:39 | 40.19863 | -74.53295 | 34469 ft | 391 kts | 261° |
| 2026-04-30 19:39 | 40.19601 | -74.56838 | 34597 ft | 392 kts | 261° |
| 2026-04-30 19:39 | 40.19337 | -74.60400 | 34674 ft | 395 kts | 261° |
| 2026-04-30 19:40 | 40.19069 | -74.63969 | 34791 ft | 395 kts | 261° |
| 2026-04-30 19:40 | 40.18795 | -74.67550 | 34929 ft | 396 kts | 261° |
| 2026-04-30 19:40 | 40.18517 | -74.71135 | 35059 ft | 397 kts | 261° |
| 2026-04-30 19:40 | 40.18265 | -74.74367 | 35160 ft | 398 kts | 261° |
| 2026-04-30 19:41 | 40.17698 | -74.81538 | 35390 ft | 400 kts | 261° |
| 2026-04-30 19:41 | 40.17410 | -74.85153 | 35497 ft | 400 kts | 261° |
| 2026-04-30 19:41 | 40.17121 | -74.88769 | 35602 ft | 401 kts | 261° |
| 2026-04-30 19:42 | 40.16535 | -74.96050 | 35822 ft | 403 kts | 261° |
| 2026-04-30 19:42 | 40.16242 | -74.99683 | 35944 ft | 403 kts | 261° |
| 2026-04-30 19:42 | 40.15941 | -75.03385 | 35999 ft | 405 kts | 261° |
| 2026-04-30 19:43 | 40.15643 | -75.07042 | 36117 ft | 405 kts | 261° |
| 2026-04-30 19:43 | 40.15350 | -75.10627 | 36263 ft | 405 kts | 261° |
| 2026-04-30 19:44 | 40.14440 | -75.21661 | 36534 ft | 407 kts | 262° |
| 2026-04-30 19:44 | 40.14135 | -75.25333 | 36708 ft | 406 kts | 262° |
| 2026-04-30 19:44 | 40.13830 | -75.28994 | 36879 ft | 405 kts | 262° |
| 2026-04-30 19:44 | 40.13526 | -75.32640 | 37108 ft | 402 kts | 262° |
| 2026-04-30 19:45 | 40.13222 | -75.36258 | 37339 ft | 399 kts | 262° |
| 2026-04-30 19:45 | 40.12650 | -75.42923 | 37466 ft | 402 kts | 261° |
| 2026-04-30 19:46 | 40.12014 | -75.50193 | 37712 ft | 402 kts | 261° |
| 2026-04-30 19:46 | 40.11696 | -75.53815 | 37820 ft | 402 kts | 262° |
| 2026-04-30 19:46 | 40.11377 | -75.57448 | 37844 ft | 403 kts | 262° |
| 2026-04-30 19:47 | 40.10732 | -75.64739 | 37856 ft | 404 kts | 261° |
| 2026-04-30 19:47 | 40.10084 | -75.72029 | 37850 ft | 404 kts | 262° |
| 2026-04-30 19:48 | 40.09433 | -75.79313 | 37846 ft | 404 kts | 262° |
| 2026-04-30 19:48 | 40.08780 | -75.86586 | 37840 ft | 403 kts | 262° |
| 2026-04-30 19:49 | 40.08131 | -75.93843 | 37832 ft | 402 kts | 262° |
| 2026-04-30 19:49 | 40.07149 | -76.04719 | 37834 ft | 402 kts | 261° |
| 2026-04-30 19:50 | 40.06489 | -76.11959 | 37835 ft | 401 kts | 261° |
| 2026-04-30 19:50 | 40.05826 | -76.19183 | 37845 ft | 401 kts | 261° |
| 2026-04-30 19:51 | 40.05158 | -76.26417 | 37841 ft | 401 kts | 261° |
| 2026-04-30 19:51 | 40.04485 | -76.33647 | 37841 ft | 402 kts | 261° |
| 2026-04-30 19:52 | 40.03812 | -76.40843 | 37843 ft | 402 kts | 261° |
| 2026-04-30 19:52 | 40.02883 | -76.47282 | 37846 ft | 401 kts | 252° |
| 2026-04-30 19:53 | 40.00598 | -76.53944 | 37846 ft | 401 kts | 240° |
| 2026-04-30 19:53 | 39.97671 | -76.60155 | 37850 ft | 402 kts | 240° |
| 2026-04-30 19:54 | 39.95255 | -76.65323 | 37841 ft | 402 kts | 240° |
| 2026-04-30 19:54 | 39.92339 | -76.71597 | 37842 ft | 401 kts | 240° |
| 2026-04-30 19:55 | 39.89458 | -76.77767 | 37840 ft | 401 kts | 240° |
| 2026-04-30 19:55 | 39.86741 | -76.83568 | 37843 ft | 401 kts | 240° |
| 2026-04-30 19:56 | 39.83816 | -76.89806 | 37842 ft | 401 kts | 240° |
| 2026-04-30 19:56 | 39.80909 | -76.95994 | 37842 ft | 401 kts | 240° |
| 2026-04-30 19:57 | 39.78084 | -77.01997 | 37848 ft | 400 kts | 240° |
| 2026-04-30 19:57 | 39.75244 | -77.08023 | 37851 ft | 401 kts | 240° |
| 2026-04-30 19:58 | 39.72328 | -77.14199 | 37863 ft | 401 kts | 240° |
| 2026-04-30 19:58 | 39.69407 | -77.20371 | 37861 ft | 402 kts | 240° |
| 2026-04-30 19:59 | 39.66480 | -77.26545 | 37859 ft | 402 kts | 240° |
| 2026-04-30 20:00 | 39.62087 | -77.35790 | 37876 ft | 403 kts | 240° |
| 2026-04-30 20:00 | 39.59143 | -77.41971 | 37872 ft | 403 kts | 240° |
| 2026-04-30 20:01 | 39.54720 | -77.51241 | 37883 ft | 403 kts | 240° |
| 2026-04-30 20:01 | 39.51770 | -77.57409 | 37874 ft | 403 kts | 240° |
| 2026-04-30 20:02 | 39.47334 | -77.66659 | 37886 ft | 403 kts | 240° |
| 2026-04-30 20:03 | 39.42891 | -77.75899 | 37866 ft | 404 kts | 240° |
| 2026-04-30 20:03 | 39.39996 | -77.81906 | 37877 ft | 404 kts | 240° |
| 2026-04-30 20:04 | 39.37197 | -77.88199 | 37884 ft | 403 kts | 244° |
| 2026-04-30 20:05 | 39.33383 | -77.97874 | 37880 ft | 403 kts | 244° |
| 2026-04-30 20:05 | 39.29555 | -78.07537 | 37889 ft | 403 kts | 244° |
| 2026-04-30 20:06 | 39.26993 | -78.13957 | 37897 ft | 402 kts | 244° |
| 2026-04-30 20:06 | 39.24426 | -78.20377 | 37897 ft | 403 kts | 244° |
| 2026-04-30 20:07 | 39.21854 | -78.26788 | 37907 ft | 402 kts | 244° |
| 2026-04-30 20:08 | 39.18068 | -78.36204 | 37905 ft | 402 kts | 244° |
| 2026-04-30 20:08 | 39.15491 | -78.42595 | 37906 ft | 401 kts | 244° |
| 2026-04-30 20:09 | 39.12918 | -78.48967 | 37915 ft | 401 kts | 244° |
| 2026-04-30 20:09 | 39.09056 | -78.58504 | 37920 ft | 400 kts | 244° |
| 2026-04-30 20:10 | 39.05186 | -78.68034 | 37920 ft | 400 kts | 244° |
| 2026-04-30 20:11 | 39.01309 | -78.77554 | 37939 ft | 400 kts | 244° |
| 2026-04-30 20:11 | 38.98724 | -78.83882 | 37948 ft | 400 kts | 244° |
| 2026-04-30 20:12 | 38.94834 | -78.93377 | 37953 ft | 400 kts | 244° |
| 2026-04-30 20:13 | 38.92239 | -78.99700 | 37964 ft | 400 kts | 244° |
| 2026-04-30 20:13 | 38.89641 | -79.06018 | 37961 ft | 400 kts | 244° |
| 2026-04-30 20:14 | 38.87039 | -79.12343 | 37966 ft | 400 kts | 244° |
| 2026-04-30 20:14 | 38.84488 | -79.18690 | 37958 ft | 399 kts | 248° |
| 2026-04-30 20:15 | 38.82918 | -79.25485 | 37971 ft | 398 kts | 257° |
| 2026-04-30 20:15 | 38.81708 | -79.32411 | 37964 ft | 398 kts | 257° |
| 2026-04-30 20:16 | 38.80483 | -79.39277 | 37969 ft | 398 kts | 257° |
| 2026-04-30 20:16 | 38.79238 | -79.46184 | 37966 ft | 397 kts | 257° |
| 2026-04-30 20:17 | 38.77989 | -79.53084 | 37973 ft | 398 kts | 257° |
| 2026-04-30 20:17 | 38.76733 | -79.59980 | 37988 ft | 397 kts | 257° |
| 2026-04-30 20:18 | 38.75478 | -79.66854 | 37985 ft | 397 kts | 257° |
| 2026-04-30 20:18 | 38.74217 | -79.73737 | 37989 ft | 397 kts | 257° |
| 2026-04-30 20:19 | 38.72946 | -79.80655 | 37997 ft | 397 kts | 257° |
| 2026-04-30 20:19 | 38.71686 | -79.87485 | 38003 ft | 396 kts | 257° |
| 2026-04-30 20:20 | 38.70414 | -79.94351 | 38011 ft | 396 kts | 257° |
| 2026-04-30 20:20 | 38.69143 | -80.01205 | 37997 ft | 396 kts | 257° |
| 2026-04-30 20:21 | 38.67866 | -80.08063 | 38007 ft | 396 kts | 257° |
| 2026-04-30 20:21 | 38.66582 | -80.14925 | 38001 ft | 396 kts | 257° |
| 2026-04-30 20:22 | 38.65295 | -80.21777 | 38003 ft | 396 kts | 257° |
| 2026-04-30 20:22 | 38.64007 | -80.28614 | 38003 ft | 395 kts | 257° |
| 2026-04-30 20:23 | 38.62726 | -80.35402 | 38007 ft | 395 kts | 257° |
| 2026-04-30 20:23 | 38.61432 | -80.42235 | 38017 ft | 396 kts | 257° |
| 2026-04-30 20:24 | 38.60130 | -80.49085 | 38028 ft | 396 kts | 257° |
| 2026-04-30 20:24 | 38.58824 | -80.55924 | 38016 ft | 396 kts | 257° |
| 2026-04-30 20:25 | 38.56861 | -80.66182 | 38023 ft | 396 kts | 257° |
| 2026-04-30 20:26 | 38.54883 | -80.76456 | 38016 ft | 397 kts | 257° |
| 2026-04-30 20:26 | 38.52901 | -80.86710 | 38019 ft | 396 kts | 257° |
| 2026-04-30 20:27 | 38.50240 | -81.00366 | 38020 ft | 396 kts | 257° |
| 2026-04-30 20:28 | 38.47569 | -81.14008 | 38026 ft | 396 kts | 257° |
| 2026-04-30 20:30 | 38.44217 | -81.30990 | 38041 ft | 396 kts | 258° |
| 2026-04-30 20:31 | 38.40154 | -81.51396 | 38054 ft | 396 kts | 258° |
| 2026-04-30 20:32 | 38.36742 | -81.68373 | 38046 ft | 395 kts | 258° |
| 2026-04-30 20:33 | 38.34628 | -81.78456 | 38051 ft | 395 kts | 254° |
| 2026-04-30 20:34 | 38.31841 | -81.88343 | 38059 ft | 395 kts | 253° |
| 2026-04-30 20:35 | 38.29035 | -81.98207 | 38054 ft | 394 kts | 253° |
| 2026-04-30 20:35 | 38.26565 | -82.06943 | 38059 ft | 394 kts | 253° |
| 2026-04-30 20:36 | 38.24704 | -82.13513 | 38055 ft | 394 kts | 253° |
| 2026-04-30 20:37 | 38.21910 | -82.23344 | 38053 ft | 394 kts | 253° |
| 2026-04-30 20:37 | 38.20047 | -82.29883 | 38059 ft | 393 kts | 253° |
| 2026-04-30 20:38 | 38.18179 | -82.36422 | 38058 ft | 393 kts | 253° |
| 2026-04-30 20:38 | 38.16312 | -82.42958 | 38053 ft | 394 kts | 253° |
| 2026-04-30 20:39 | 38.13508 | -82.52763 | 38053 ft | 394 kts | 253° |
| 2026-04-30 20:40 | 38.10694 | -82.62559 | 38059 ft | 394 kts | 253° |
| 2026-04-30 20:40 | 38.08815 | -82.69080 | 38064 ft | 393 kts | 253° |
| 2026-04-30 20:41 | 38.05988 | -82.78864 | 38060 ft | 394 kts | 253° |
| 2026-04-30 20:41 | 38.04098 | -82.85386 | 38066 ft | 394 kts | 253° |
| 2026-04-30 20:42 | 38.02205 | -82.91910 | 38067 ft | 394 kts | 253° |
| 2026-04-30 20:43 | 37.99360 | -83.01666 | 38068 ft | 393 kts | 254° |
| 2026-04-30 20:43 | 37.97487 | -83.08063 | 38066 ft | 385 kts | 255° |
| 2026-04-30 20:44 | 37.94727 | -83.17473 | 38072 ft | 378 kts | 255° |
| 2026-04-30 20:45 | 37.91072 | -83.29903 | 38068 ft | 376 kts | 255° |
| 2026-04-30 20:45 | 37.89243 | -83.36099 | 38073 ft | 376 kts | 255° |
| 2026-04-30 20:46 | 37.85566 | -83.48509 | 38069 ft | 377 kts | 255° |
| 2026-04-30 20:47 | 37.82792 | -83.57835 | 38071 ft | 378 kts | 255° |
| 2026-04-30 20:48 | 37.79999 | -83.67192 | 38078 ft | 380 kts | 255° |
| 2026-04-30 20:48 | 37.78129 | -83.73439 | 38083 ft | 381 kts | 255° |
| 2026-04-30 20:49 | 37.76250 | -83.79701 | 38092 ft | 381 kts | 255° |
| 2026-04-30 20:50 | 37.73426 | -83.89087 | 38089 ft | 381 kts | 255° |
| 2026-04-30 20:50 | 37.71536 | -83.95351 | 38085 ft | 382 kts | 255° |
| 2026-04-30 20:51 | 37.69643 | -84.01612 | 38079 ft | 382 kts | 255° |
| 2026-04-30 20:51 | 37.66799 | -84.10996 | 38083 ft | 381 kts | 255° |
| 2026-04-30 20:52 | 37.64898 | -84.17242 | 38080 ft | 381 kts | 255° |
| 2026-04-30 20:53 | 37.62035 | -84.26567 | 38086 ft | 379 kts | 255° |
| 2026-04-30 20:53 | 37.60130 | -84.32757 | 38078 ft | 378 kts | 255° |
| 2026-04-30 20:54 | 37.57294 | -84.41961 | 38079 ft | 376 kts | 255° |
| 2026-04-30 20:55 | 37.54453 | -84.51150 | 38081 ft | 374 kts | 255° |
| 2026-04-30 20:55 | 37.52565 | -84.57240 | 38092 ft | 372 kts | 255° |
| 2026-04-30 20:56 | 37.49742 | -84.66326 | 38085 ft | 370 kts | 255° |
| 2026-04-30 20:57 | 37.46935 | -84.75361 | 38076 ft | 369 kts | 255° |
| 2026-04-30 20:57 | 37.45089 | -84.81361 | 38086 ft | 367 kts | 255° |
| 2026-04-30 20:58 | 37.42325 | -84.90319 | 38077 ft | 365 kts | 256° |
| 2026-04-30 20:58 | 37.40488 | -84.96255 | 38092 ft | 364 kts | 256° |
| 2026-04-30 20:59 | 37.37729 | -85.05116 | 38084 ft | 362 kts | 256° |
| 2026-04-30 21:00 | 37.34015 | -85.16887 | 38096 ft | 362 kts | 256° |
| 2026-04-30 21:01 | 37.31229 | -85.25696 | 38106 ft | 361 kts | 256° |
| 2026-04-30 21:02 | 37.28443 | -85.34480 | 38107 ft | 361 kts | 256° |
| 2026-04-30 21:02 | 37.26585 | -85.40324 | 38108 ft | 360 kts | 256° |
| 2026-04-30 21:03 | 37.24735 | -85.46131 | 38102 ft | 360 kts | 256° |
| 2026-04-30 21:03 | 37.22874 | -85.51965 | 38099 ft | 360 kts | 256° |
| 2026-04-30 21:04 | 37.21007 | -85.57801 | 38096 ft | 360 kts | 256° |
| 2026-04-30 21:04 | 37.18206 | -85.66533 | 38077 ft | 360 kts | 256° |
| 2026-04-30 21:05 | 37.16381 | -85.72211 | 38079 ft | 359 kts | 256° |
| 2026-04-30 21:05 | 37.14512 | -85.78015 | 38076 ft | 359 kts | 256° |
| 2026-04-30 21:06 | 37.12639 | -85.83819 | 38074 ft | 359 kts | 256° |
| 2026-04-30 21:06 | 37.10767 | -85.89609 | 38064 ft | 359 kts | 256° |
| 2026-04-30 21:07 | 37.08892 | -85.95395 | 38063 ft | 358 kts | 256° |
| 2026-04-30 21:07 | 37.07014 | -86.01177 | 38063 ft | 358 kts | 256° |
| 2026-04-30 21:08 | 37.05138 | -86.06941 | 38062 ft | 357 kts | 256° |
| 2026-04-30 21:08 | 37.03269 | -86.12678 | 38062 ft | 355 kts | 256° |
| 2026-04-30 21:09 | 37.01402 | -86.18393 | 38067 ft | 354 kts | 256° |
| 2026-04-30 21:09 | 36.99541 | -86.24083 | 38071 ft | 353 kts | 256° |
| 2026-04-30 21:10 | 36.97681 | -86.29758 | 38085 ft | 352 kts | 256° |
| 2026-04-30 21:10 | 36.95823 | -86.35420 | 38078 ft | 352 kts | 256° |
| 2026-04-30 21:11 | 36.93964 | -86.41068 | 38083 ft | 351 kts | 256° |
| 2026-04-30 21:11 | 36.91775 | -86.46582 | 38082 ft | 361 kts | 248° |
| 2026-04-30 21:12 | 36.89049 | -86.51853 | 38072 ft | 361 kts | 248° |
| 2026-04-30 21:12 | 36.86324 | -86.57103 | 38062 ft | 360 kts | 248° |
| 2026-04-30 21:13 | 36.83614 | -86.62340 | 38062 ft | 359 kts | 248° |
| 2026-04-30 21:13 | 36.80906 | -86.67577 | 38066 ft | 359 kts | 248° |
| 2026-04-30 21:14 | 36.78219 | -86.72770 | 38070 ft | 359 kts | 248° |
| 2026-04-30 21:14 | 36.75513 | -86.77996 | 38065 ft | 358 kts | 248° |
| 2026-04-30 21:15 | 36.72806 | -86.83216 | 38065 ft | 358 kts | 248° |
| 2026-04-30 21:15 | 36.70080 | -86.88465 | 38059 ft | 358 kts | 248° |
| 2026-04-30 21:16 | 36.67390 | -86.93637 | 38058 ft | 358 kts | 247° |
| 2026-04-30 21:16 | 36.64680 | -86.98837 | 38053 ft | 358 kts | 247° |
| 2026-04-30 21:17 | 36.61964 | -87.04039 | 38055 ft | 358 kts | 247° |
| 2026-04-30 21:17 | 36.59249 | -87.09233 | 38059 ft | 358 kts | 247° |
| 2026-04-30 21:18 | 36.56517 | -87.14450 | 38066 ft | 358 kts | 247° |
| 2026-04-30 21:18 | 36.53797 | -87.19639 | 38066 ft | 358 kts | 247° |
| 2026-04-30 21:19 | 36.51094 | -87.24792 | 38066 ft | 358 kts | 247° |
| 2026-04-30 21:19 | 36.48367 | -87.29978 | 38066 ft | 358 kts | 247° |
| 2026-04-30 21:20 | 36.46079 | -87.34319 | 38068 ft | 358 kts | 247° |
| 2026-04-30 21:20 | 36.43352 | -87.39488 | 38072 ft | 358 kts | 247° |
| 2026-04-30 21:21 | 36.40617 | -87.44664 | 38070 ft | 359 kts | 247° |
| 2026-04-30 21:22 | 36.36511 | -87.52423 | 38070 ft | 359 kts | 247° |
| 2026-04-30 21:23 | 36.31027 | -87.62759 | 38071 ft | 359 kts | 247° |
| 2026-04-30 21:23 | 36.26905 | -87.70508 | 38069 ft | 358 kts | 247° |
| 2026-04-30 21:24 | 36.24160 | -87.75659 | 38072 ft | 359 kts | 247° |
| 2026-04-30 21:24 | 36.21409 | -87.80813 | 38066 ft | 359 kts | 247° |
| 2026-04-30 21:25 | 36.17278 | -87.88538 | 38065 ft | 359 kts | 247° |
| 2026-04-30 21:26 | 36.13144 | -87.96250 | 38066 ft | 359 kts | 247° |
| 2026-04-30 21:27 | 36.09004 | -88.03955 | 38064 ft | 359 kts | 247° |
| 2026-04-30 21:27 | 36.06239 | -88.09093 | 38055 ft | 359 kts | 246° |
| 2026-04-30 21:28 | 36.02095 | -88.16777 | 38058 ft | 358 kts | 246° |
| 2026-04-30 21:29 | 35.97941 | -88.24465 | 38056 ft | 359 kts | 246° |
| 2026-04-30 21:30 | 35.91023 | -88.37226 | 38060 ft | 359 kts | 246° |
| 2026-04-30 21:31 | 35.84065 | -88.50017 | 38065 ft | 359 kts | 246° |
| 2026-04-30 21:32 | 35.79881 | -88.57685 | 38066 ft | 360 kts | 246° |
| 2026-04-30 21:32 | 35.77088 | -88.62797 | 38060 ft | 360 kts | 246° |
| 2026-04-30 21:33 | 35.72887 | -88.70465 | 38067 ft | 360 kts | 246° |
| 2026-04-30 21:34 | 35.70181 | -88.75393 | 38068 ft | 361 kts | 246° |
| 2026-04-30 21:34 | 35.65969 | -88.83056 | 38073 ft | 360 kts | 246° |
| 2026-04-30 21:35 | 35.63156 | -88.88166 | 38072 ft | 361 kts | 246° |
| 2026-04-30 21:35 | 35.60338 | -88.93275 | 38072 ft | 362 kts | 246° |
| 2026-04-30 21:36 | 35.57507 | -88.98402 | 38078 ft | 362 kts | 246° |
| 2026-04-30 21:37 | 35.51830 | -89.08658 | 38075 ft | 364 kts | 246° |
| 2026-04-30 21:37 | 35.48979 | -89.13795 | 38065 ft | 364 kts | 246° |
| 2026-04-30 21:38 | 35.46124 | -89.18928 | 38067 ft | 364 kts | 246° |
| 2026-04-30 21:38 | 35.43299 | -89.24007 | 38065 ft | 364 kts | 246° |
| 2026-04-30 21:39 | 35.40465 | -89.29095 | 38064 ft | 364 kts | 246° |
| 2026-04-30 21:39 | 35.37609 | -89.34215 | 38064 ft | 364 kts | 246° |
| 2026-04-30 21:40 | 35.34752 | -89.39329 | 38065 ft | 364 kts | 246° |
| 2026-04-30 21:40 | 35.31886 | -89.44448 | 38057 ft | 364 kts | 246° |
| 2026-04-30 21:41 | 35.29022 | -89.49558 | 38044 ft | 364 kts | 246° |
| 2026-04-30 21:41 | 35.26155 | -89.54666 | 38044 ft | 364 kts | 246° |
| 2026-04-30 21:42 | 35.23292 | -89.59763 | 38047 ft | 364 kts | 246° |
| 2026-04-30 21:42 | 35.20421 | -89.64863 | 38058 ft | 364 kts | 246° |
| 2026-04-30 21:43 | 35.17548 | -89.69959 | 38056 ft | 364 kts | 246° |
| 2026-04-30 21:43 | 35.14675 | -89.75049 | 38055 ft | 364 kts | 246° |
| 2026-04-30 21:44 | 35.11797 | -89.80140 | 38045 ft | 364 kts | 246° |
| 2026-04-30 21:44 | 35.08921 | -89.85221 | 38047 ft | 364 kts | 246° |
| 2026-04-30 21:45 | 35.06038 | -89.90306 | 38048 ft | 364 kts | 246° |
| 2026-04-30 21:45 | 35.03308 | -89.95465 | 38048 ft | 355 kts | 253° |
| 2026-04-30 21:46 | 35.01570 | -90.01020 | 38050 ft | 348 kts | 259° |
| 2026-04-30 21:46 | 35.00730 | -90.06745 | 38058 ft | 341 kts | 267° |
| 2026-04-30 21:47 | 35.00243 | -90.12484 | 38051 ft | 341 kts | 268° |
| 2026-04-30 21:47 | 34.99760 | -90.18247 | 38059 ft | 342 kts | 268° |
| 2026-04-30 21:48 | 34.99514 | -90.21126 | 38206 ft | 341 kts | 268° |
| 2026-04-30 21:48 | 34.99266 | -90.23994 | 38411 ft | 339 kts | 268° |
| 2026-04-30 21:48 | 34.99017 | -90.26847 | 38617 ft | 338 kts | 268° |
| 2026-04-30 21:48 | 34.98768 | -90.29694 | 38757 ft | 338 kts | 268° |
| 2026-04-30 21:49 | 34.98519 | -90.32540 | 38858 ft | 338 kts | 268° |
| 2026-04-30 21:49 | 34.98267 | -90.35394 | 38998 ft | 338 kts | 268° |
| 2026-04-30 21:49 | 34.98015 | -90.38249 | 39124 ft | 338 kts | 268° |
| 2026-04-30 21:49 | 34.97762 | -90.41102 | 39193 ft | 340 kts | 268° |
| 2026-04-30 21:50 | 34.97247 | -90.46862 | 39325 ft | 342 kts | 268° |
| 2026-04-30 21:50 | 34.96989 | -90.49741 | 39456 ft | 342 kts | 268° |
| 2026-04-30 21:50 | 34.96731 | -90.52623 | 39543 ft | 342 kts | 268° |
| 2026-04-30 21:51 | 34.96210 | -90.58405 | 39690 ft | 344 kts | 268° |
| 2026-04-30 21:51 | 34.95951 | -90.61267 | 39801 ft | 344 kts | 268° |
| 2026-04-30 21:51 | 34.95687 | -90.64161 | 39904 ft | 343 kts | 267° |
| 2026-04-30 21:52 | 34.95421 | -90.67086 | 40011 ft | 343 kts | 267° |
| 2026-04-30 21:52 | 34.95157 | -90.69976 | 40037 ft | 344 kts | 267° |
| 2026-04-30 21:52 | 34.94629 | -90.75745 | 40051 ft | 346 kts | 267° |
| 2026-04-30 21:53 | 34.94091 | -90.81596 | 40054 ft | 348 kts | 267° |
| 2026-04-30 21:53 | 34.93547 | -90.87469 | 40049 ft | 350 kts | 267° |
| 2026-04-30 21:54 | 34.92997 | -90.93362 | 40045 ft | 350 kts | 267° |
| 2026-04-30 21:54 | 34.92445 | -90.99255 | 40043 ft | 350 kts | 267° |
| 2026-04-30 21:55 | 34.91892 | -91.05132 | 40051 ft | 349 kts | 267° |
| 2026-04-30 21:55 | 34.91337 | -91.11002 | 40055 ft | 348 kts | 267° |
| 2026-04-30 21:56 | 34.90779 | -91.16862 | 40057 ft | 348 kts | 267° |
| 2026-04-30 21:56 | 34.90221 | -91.22705 | 40054 ft | 347 kts | 267° |
| 2026-04-30 21:57 | 34.89660 | -91.28541 | 40066 ft | 346 kts | 267° |
| 2026-04-30 21:57 | 34.89098 | -91.34364 | 40068 ft | 346 kts | 267° |
| 2026-04-30 21:58 | 34.88534 | -91.40181 | 40063 ft | 346 kts | 267° |
| 2026-04-30 21:58 | 34.87969 | -91.45968 | 40060 ft | 346 kts | 267° |
| 2026-04-30 21:59 | 34.87394 | -91.51835 | 40059 ft | 346 kts | 266° |
| 2026-04-30 22:00 | 34.86532 | -91.60579 | 40054 ft | 346 kts | 266° |
| 2026-04-30 22:00 | 34.85668 | -91.69269 | 40050 ft | 347 kts | 266° |
| 2026-04-30 22:01 | 34.85085 | -91.75100 | 40049 ft | 347 kts | 266° |
| 2026-04-30 22:01 | 34.84500 | -91.80927 | 40041 ft | 347 kts | 266° |
| 2026-04-30 22:02 | 34.83911 | -91.86757 | 40053 ft | 347 kts | 266° |
| 2026-04-30 22:02 | 34.83320 | -91.92587 | 40059 ft | 347 kts | 266° |
| 2026-04-30 22:03 | 34.82726 | -91.98411 | 40068 ft | 347 kts | 266° |
| 2026-04-30 22:03 | 34.82130 | -92.04241 | 40069 ft | 347 kts | 266° |
| 2026-04-30 22:04 | 34.81529 | -92.10080 | 40067 ft | 348 kts | 266° |
| 2026-04-30 22:05 | 34.79807 | -92.18702 | 40064 ft | 357 kts | 254° |
| 2026-04-30 22:05 | 34.78180 | -92.23318 | 40066 ft | 357 kts | 253° |
| 2026-04-30 22:06 | 34.76205 | -92.28866 | 40062 ft | 358 kts | 253° |
| 2026-04-30 22:06 | 34.73249 | -92.37201 | 40058 ft | 358 kts | 253° |
| 2026-04-30 22:07 | 34.71277 | -92.42770 | 40068 ft | 359 kts | 253° |
| 2026-04-30 22:07 | 34.69304 | -92.48336 | 40053 ft | 359 kts | 253° |
| 2026-04-30 22:08 | 34.67324 | -92.53914 | 40054 ft | 359 kts | 253° |
| 2026-04-30 22:08 | 34.65341 | -92.59493 | 40052 ft | 359 kts | 253° |
| 2026-04-30 22:09 | 34.63358 | -92.65061 | 40043 ft | 360 kts | 253° |
| 2026-04-30 22:09 | 34.61370 | -92.70633 | 40044 ft | 359 kts | 253° |
| 2026-04-30 22:10 | 34.59382 | -92.76195 | 40048 ft | 359 kts | 253° |
| 2026-04-30 22:10 | 34.57391 | -92.81756 | 40055 ft | 359 kts | 253° |
| 2026-04-30 22:11 | 34.54396 | -92.90103 | 40051 ft | 360 kts | 253° |
| 2026-04-30 22:12 | 34.52396 | -92.95664 | 40050 ft | 360 kts | 253° |
| 2026-04-30 22:12 | 34.50408 | -93.01182 | 40049 ft | 359 kts | 253° |
| 2026-04-30 22:13 | 34.48405 | -93.06734 | 40045 ft | 359 kts | 253° |
| 2026-04-30 22:13 | 34.46402 | -93.12277 | 40044 ft | 359 kts | 253° |
| 2026-04-30 22:14 | 34.44397 | -93.17814 | 40046 ft | 359 kts | 253° |
| 2026-04-30 22:14 | 34.42389 | -93.23349 | 40047 ft | 359 kts | 253° |
| 2026-04-30 22:15 | 34.40383 | -93.28871 | 40048 ft | 358 kts | 253° |
| 2026-04-30 22:15 | 34.38376 | -93.34388 | 40041 ft | 358 kts | 253° |
| 2026-04-30 22:16 | 34.36366 | -93.39904 | 40043 ft | 358 kts | 253° |
| 2026-04-30 22:17 | 34.32331 | -93.50947 | 40034 ft | 359 kts | 253° |
| 2026-04-30 22:17 | 34.29841 | -93.59398 | 40040 ft | 355 kts | 258° |
| 2026-04-30 22:18 | 34.27519 | -93.67909 | 40030 ft | 356 kts | 258° |
| 2026-04-30 22:19 | 34.25172 | -93.76427 | 40027 ft | 356 kts | 258° |
| 2026-04-30 22:20 | 34.22813 | -93.84941 | 40029 ft | 356 kts | 258° |
| 2026-04-30 22:20 | 34.20445 | -93.93457 | 40024 ft | 356 kts | 257° |
| 2026-04-30 22:21 | 34.18875 | -93.99089 | 40030 ft | 356 kts | 257° |
| 2026-04-30 22:21 | 34.17290 | -94.04762 | 40023 ft | 357 kts | 257° |
| 2026-04-30 22:22 | 34.15701 | -94.10439 | 40021 ft | 357 kts | 257° |
| 2026-04-30 22:22 | 34.14112 | -94.16106 | 40019 ft | 356 kts | 257° |
| 2026-04-30 22:23 | 34.12520 | -94.21772 | 40019 ft | 356 kts | 257° |
| 2026-04-30 22:23 | 34.10925 | -94.27436 | 40015 ft | 357 kts | 257° |
| 2026-04-30 22:24 | 34.09325 | -94.33105 | 40009 ft | 357 kts | 257° |
| 2026-04-30 22:24 | 34.07723 | -94.38774 | 40006 ft | 357 kts | 257° |
| 2026-04-30 22:25 | 34.06119 | -94.44434 | 40010 ft | 357 kts | 257° |
| 2026-04-30 22:25 | 34.04513 | -94.50094 | 40008 ft | 357 kts | 257° |
| 2026-04-30 22:26 | 34.02094 | -94.58594 | 40012 ft | 357 kts | 257° |
| 2026-04-30 22:27 | 34.00481 | -94.64250 | 40016 ft | 357 kts | 257° |
| 2026-04-30 22:27 | 33.98051 | -94.72749 | 40018 ft | 358 kts | 257° |
| 2026-04-30 22:28 | 33.95607 | -94.81271 | 40028 ft | 360 kts | 257° |
| 2026-04-30 22:29 | 33.92320 | -94.92692 | 40027 ft | 362 kts | 257° |
| 2026-04-30 22:31 | 33.86523 | -95.12726 | 40028 ft | 364 kts | 256° |
| 2026-04-30 22:32 | 33.82329 | -95.27105 | 40029 ft | 365 kts | 256° |
| 2026-04-30 22:33 | 33.78114 | -95.41472 | 40030 ft | 364 kts | 256° |
| 2026-04-30 22:35 | 33.73887 | -95.55817 | 40028 ft | 364 kts | 256° |
| 2026-04-30 22:36 | 33.69647 | -95.70136 | 40032 ft | 364 kts | 256° |
| 2026-04-30 22:37 | 33.66248 | -95.81569 | 40026 ft | 363 kts | 256° |
| 2026-04-30 22:38 | 33.62837 | -95.92996 | 40029 ft | 363 kts | 256° |
| 2026-04-30 22:39 | 33.60274 | -96.01553 | 40019 ft | 363 kts | 256° |
| 2026-04-30 22:40 | 33.55136 | -96.18639 | 40019 ft | 363 kts | 256° |
| 2026-04-30 22:41 | 33.49706 | -96.32350 | 40029 ft | 370 kts | 249° |
| 2026-04-30 22:43 | 33.42332 | -96.48629 | 40030 ft | 371 kts | 249° |
| 2026-04-30 22:44 | 33.37406 | -96.59510 | 40031 ft | 372 kts | 249° |
| 2026-04-30 22:45 | 33.30002 | -96.75805 | 40031 ft | 373 kts | 248° |
| 2026-04-30 22:47 | 33.22564 | -96.92098 | 40025 ft | 373 kts | 248° |
| 2026-04-30 22:48 | 33.17643 | -97.02840 | 40012 ft | 373 kts | 248° |
| 2026-04-30 22:49 | 33.10377 | -97.18639 | 40009 ft | 373 kts | 248° |
| 2026-04-30 22:51 | 33.03387 | -97.33773 | 40001 ft | 373 kts | 248° |
| 2026-04-30 22:52 | 32.99626 | -97.41891 | 40000 ft | 373 kts | 248° |
| 2026-04-30 22:53 | 32.94594 | -97.52722 | 40001 ft | 374 kts | 248° |
| 2026-04-30 22:53 | 32.90827 | -97.60812 | 39997 ft | 374 kts | 248° |
| 2026-04-30 22:55 | 32.84502 | -97.74350 | 40000 ft | 375 kts | 247° |
| 2026-04-30 22:56 | 32.79424 | -97.85187 | 40004 ft | 375 kts | 247° |
| 2026-04-30 22:57 | 32.73257 | -97.98809 | 40001 ft | 370 kts | 254° |
| 2026-04-30 22:58 | 32.71210 | -98.10606 | 39999 ft | 365 kts | 264° |
| 2026-04-30 22:59 | 32.68999 | -98.28506 | 40001 ft | 366 kts | 264° |